sensor_id;sensor_type;location;lat;lon;timestamp;P1;durP1;ratioP1;P2;durP2;ratioP2
65189;SDS011;51777;53.570;9.984;2023-09-07T00:01:22;5.90;;;3.20;;
65189;SDS011;51777;53.570;9.984;2023-09-07T00:03:48;6.25;;;3.17;;
65189;SDS011;51777;53.570;9.984;2023-09-07T00:06:13;4.55;;;3.30;;
65189;SDS011;51777;53.570;9.984;2023-09-07T00:08:38;9.35;;;3.30;;
65189;SDS011;51777;53.570;9.984;2023-09-07T00:11:07;6.95;;;3.40;;
65189;SDS011;51777;53.570;9.984;2023-09-07T00:13:34;6.20;;;3.10;;
65189;SDS011;51777;53.570;9.984;2023-09-07T00:16:01;5.20;;;3.15;;
65189;SDS011;51777;53.570;9.984;2023-09-07T00:18:29;4.88;;;2.80;;
65189;SDS011;51777;53.570;9.984;2023-09-07T00:20:55;4.10;;;3.30;;
65189;SDS011;51777;53.570;9.984;2023-09-07T00:23:23;7.10;;;3.20;;
65189;SDS011;51777;53.570;9.984;2023-09-07T00:25:51;5.60;;;3.50;;
65189;SDS011;51777;53.570;9.984;2023-09-07T00:28:17;6.65;;;3.10;;
65189;SDS011;51777;53.570;9.984;2023-09-07T00:30:43;3.30;;;3.00;;
65189;SDS011;51777;53.570;9.984;2023-09-07T00:33:09;8.07;;;3.20;;
65189;SDS011;51777;53.570;9.984;2023-09-07T00:35:34;10.02;;;3.20;;
65189;SDS011;51777;53.570;9.984;2023-09-07T00:38:00;5.65;;;3.20;;
65189;SDS011;51777;53.570;9.984;2023-09-07T00:40:26;5.40;;;3.30;;
65189;SDS011;51777;53.570;9.984;2023-09-07T00:42:51;5.25;;;3.10;;
65189;SDS011;51777;53.570;9.984;2023-09-07T00:45:17;5.18;;;3.42;;
65189;SDS011;51777;53.570;9.984;2023-09-07T00:47:43;6.05;;;3.13;;
65189;SDS011;51777;53.570;9.984;2023-09-07T00:50:09;4.03;;;3.33;;
65189;SDS011;51777;53.570;9.984;2023-09-07T00:52:34;6.55;;;3.25;;
65189;SDS011;51777;53.570;9.984;2023-09-07T00:55:04;6.47;;;3.10;;
65189;SDS011;51777;53.570;9.984;2023-09-07T00:57:31;4.07;;;3.28;;
65189;SDS011;51777;53.570;9.984;2023-09-07T00:59:56;6.03;;;3.20;;
65189;SDS011;51777;53.570;9.984;2023-09-07T01:02:22;5.68;;;2.88;;
65189;SDS011;51777;53.570;9.984;2023-09-07T01:04:47;4.97;;;3.05;;
65189;SDS011;51777;53.570;9.984;2023-09-07T01:07:20;5.97;;;3.40;;
65189;SDS011;51777;53.570;9.984;2023-09-07T01:09:49;10.20;;;3.40;;
65189;SDS011;51777;53.570;9.984;2023-09-07T01:12:18;4.43;;;3.20;;
65189;SDS011;51777;53.570;9.984;2023-09-07T01:14:43;3.63;;;3.08;;
65189;SDS011;51777;53.570;9.984;2023-09-07T01:17:09;7.15;;;3.50;;
65189;SDS011;51777;53.570;9.984;2023-09-07T01:19:39;4.60;;;3.20;;
65189;SDS011;51777;53.570;9.984;2023-09-07T01:22:05;4.32;;;3.00;;
65189;SDS011;51777;53.570;9.984;2023-09-07T01:24:32;5.43;;;3.40;;
65189;SDS011;51777;53.570;9.984;2023-09-07T01:27:00;4.20;;;3.20;;
65189;SDS011;51777;53.570;9.984;2023-09-07T01:29:30;6.25;;;3.40;;
65189;SDS011;51777;53.570;9.984;2023-09-07T01:31:56;6.03;;;3.20;;
65189;SDS011;51777;53.570;9.984;2023-09-07T01:34:22;3.20;;;2.90;;
65189;SDS011;51777;53.570;9.984;2023-09-07T01:36:48;3.45;;;3.10;;
65189;SDS011;51777;53.570;9.984;2023-09-07T01:39:14;8.73;;;3.10;;
65189;SDS011;51777;53.570;9.984;2023-09-07T01:41:40;6.20;;;3.38;;
65189;SDS011;51777;53.570;9.984;2023-09-07T01:44:05;6.70;;;3.00;;
65189;SDS011;51777;53.570;9.984;2023-09-07T01:46:34;6.72;;;3.25;;
65189;SDS011;51777;53.570;9.984;2023-09-07T01:49:00;6.30;;;3.05;;
65189;SDS011;51777;53.570;9.984;2023-09-07T01:51:26;3.78;;;3.08;;
65189;SDS011;51777;53.570;9.984;2023-09-07T01:53:53;4.18;;;3.08;;
65189;SDS011;51777;53.570;9.984;2023-09-07T01:56:19;4.90;;;3.20;;
65189;SDS011;51777;53.570;9.984;2023-09-07T01:58:45;4.78;;;3.33;;
65189;SDS011;51777;53.570;9.984;2023-09-07T02:01:23;5.75;;;3.20;;
65189;SDS011;51777;53.570;9.984;2023-09-07T02:03:50;6.45;;;3.40;;
65189;SDS011;51777;53.570;9.984;2023-09-07T02:06:16;5.22;;;3.05;;
65189;SDS011;51777;53.570;9.984;2023-09-07T02:08:41;5.72;;;3.40;;
65189;SDS011;51777;53.570;9.984;2023-09-07T02:11:07;3.53;;;3.22;;
65189;SDS011;51777;53.570;9.984;2023-09-07T02:13:32;6.30;;;3.20;;
65189;SDS011;51777;53.570;9.984;2023-09-07T02:15:57;5.57;;;3.53;;
65189;SDS011;51777;53.570;9.984;2023-09-07T02:18:23;4.05;;;3.20;;
65189;SDS011;51777;53.570;9.984;2023-09-07T02:20:48;3.67;;;3.25;;
65189;SDS011;51777;53.570;9.984;2023-09-07T02:23:14;4.30;;;3.30;;
65189;SDS011;51777;53.570;9.984;2023-09-07T02:25:40;5.07;;;3.40;;
65189;SDS011;51777;53.570;9.984;2023-09-07T02:28:06;4.13;;;3.28;;
65189;SDS011;51777;53.570;9.984;2023-09-07T02:30:31;5.25;;;3.55;;
65189;SDS011;51777;53.570;9.984;2023-09-07T02:32:57;7.00;;;3.45;;
65189;SDS011;51777;53.570;9.984;2023-09-07T02:35:22;6.30;;;3.15;;
65189;SDS011;51777;53.570;9.984;2023-09-07T02:37:48;4.22;;;3.38;;
65189;SDS011;51777;53.570;9.984;2023-09-07T02:40:13;4.30;;;3.20;;
65189;SDS011;51777;53.570;9.984;2023-09-07T02:42:40;4.97;;;3.40;;
65189;SDS011;51777;53.570;9.984;2023-09-07T02:45:07;5.03;;;2.97;;
65189;SDS011;51777;53.570;9.984;2023-09-07T02:47:34;5.55;;;3.30;;
65189;SDS011;51777;53.570;9.984;2023-09-07T02:50:00;8.25;;;3.63;;
65189;SDS011;51777;53.570;9.984;2023-09-07T02:52:25;7.47;;;3.67;;
65189;SDS011;51777;53.570;9.984;2023-09-07T02:54:50;7.65;;;3.28;;
65189;SDS011;51777;53.570;9.984;2023-09-07T02:57:16;6.35;;;3.50;;
65189;SDS011;51777;53.570;9.984;2023-09-07T02:59:41;6.07;;;3.60;;
65189;SDS011;51777;53.570;9.984;2023-09-07T03:02:07;4.85;;;3.60;;
65189;SDS011;51777;53.570;9.984;2023-09-07T03:04:32;6.22;;;3.50;;
65189;SDS011;51777;53.570;9.984;2023-09-07T03:06:57;6.78;;;3.33;;
65189;SDS011;51777;53.570;9.984;2023-09-07T03:09:25;7.43;;;3.40;;
65189;SDS011;51777;53.570;9.984;2023-09-07T03:11:51;8.13;;;3.60;;
65189;SDS011;51777;53.570;9.984;2023-09-07T03:14:16;5.30;;;3.55;;
65189;SDS011;51777;53.570;9.984;2023-09-07T03:16:42;5.07;;;3.60;;
65189;SDS011;51777;53.570;9.984;2023-09-07T03:19:07;6.45;;;3.70;;
65189;SDS011;51777;53.570;9.984;2023-09-07T03:21:32;5.70;;;3.58;;
65189;SDS011;51777;53.570;9.984;2023-09-07T03:23:58;6.55;;;3.67;;
65189;SDS011;51777;53.570;9.984;2023-09-07T03:26:24;8.05;;;3.53;;
65189;SDS011;51777;53.570;9.984;2023-09-07T03:28:49;6.85;;;3.90;;
65189;SDS011;51777;53.570;9.984;2023-09-07T03:31:15;9.82;;;3.70;;
65189;SDS011;51777;53.570;9.984;2023-09-07T03:33:41;4.57;;;3.75;;
65189;SDS011;51777;53.570;9.984;2023-09-07T03:36:06;7.40;;;3.88;;
65189;SDS011;51777;53.570;9.984;2023-09-07T03:38:34;3.80;;;3.42;;
65189;SDS011;51777;53.570;9.984;2023-09-07T03:40:59;5.00;;;3.40;;
65189;SDS011;51777;53.570;9.984;2023-09-07T03:43:25;5.78;;;3.63;;
65189;SDS011;51777;53.570;9.984;2023-09-07T03:45:50;4.80;;;3.83;;
65189;SDS011;51777;53.570;9.984;2023-09-07T03:48:16;4.82;;;3.85;;
65189;SDS011;51777;53.570;9.984;2023-09-07T03:50:42;5.32;;;3.38;;
65189;SDS011;51777;53.570;9.984;2023-09-07T03:53:07;4.85;;;3.90;;
65189;SDS011;51777;53.570;9.984;2023-09-07T03:55:42;6.53;;;3.90;;
65189;SDS011;51777;53.570;9.984;2023-09-07T03:58:10;9.30;;;3.58;;
65189;SDS011;51777;53.570;9.984;2023-09-07T04:00:40;3.78;;;3.47;;
65189;SDS011;51777;53.570;9.984;2023-09-07T04:03:06;6.78;;;3.90;;
65189;SDS011;51777;53.570;9.984;2023-09-07T04:05:32;5.85;;;3.97;;
65189;SDS011;51777;53.570;9.984;2023-09-07T04:07:59;8.45;;;3.90;;
65189;SDS011;51777;53.570;9.984;2023-09-07T04:10:25;7.22;;;3.83;;
65189;SDS011;51777;53.570;9.984;2023-09-07T04:12:51;8.18;;;4.00;;
65189;SDS011;51777;53.570;9.984;2023-09-07T04:15:17;5.30;;;4.03;;
65189;SDS011;51777;53.570;9.984;2023-09-07T04:17:42;7.57;;;4.30;;
65189;SDS011;51777;53.570;9.984;2023-09-07T04:20:08;6.43;;;3.95;;
65189;SDS011;51777;53.570;9.984;2023-09-07T04:22:36;5.80;;;4.10;;
65189;SDS011;51777;53.570;9.984;2023-09-07T04:25:03;6.03;;;4.25;;
65189;SDS011;51777;53.570;9.984;2023-09-07T04:27:30;5.97;;;4.10;;
65189;SDS011;51777;53.570;9.984;2023-09-07T04:29:56;5.97;;;4.22;;
65189;SDS011;51777;53.570;9.984;2023-09-07T04:32:21;4.65;;;4.10;;
65189;SDS011;51777;53.570;9.984;2023-09-07T04:34:46;5.57;;;4.45;;
65189;SDS011;51777;53.570;9.984;2023-09-07T04:37:12;7.10;;;4.25;;
65189;SDS011;51777;53.570;9.984;2023-09-07T04:39:37;7.05;;;4.43;;
65189;SDS011;51777;53.570;9.984;2023-09-07T04:42:05;6.10;;;4.18;;
65189;SDS011;51777;53.570;9.984;2023-09-07T04:44:30;7.45;;;4.57;;
65189;SDS011;51777;53.570;9.984;2023-09-07T04:46:56;5.72;;;4.38;;
65189;SDS011;51777;53.570;9.984;2023-09-07T04:49:22;12.73;;;4.55;;
65189;SDS011;51777;53.570;9.984;2023-09-07T04:51:52;7.70;;;4.70;;
65189;SDS011;51777;53.570;9.984;2023-09-07T04:54:18;8.45;;;4.65;;
65189;SDS011;51777;53.570;9.984;2023-09-07T04:56:44;5.13;;;4.30;;
65189;SDS011;51777;53.570;9.984;2023-09-07T04:59:09;6.93;;;4.53;;
65189;SDS011;51777;53.570;9.984;2023-09-07T05:01:35;8.20;;;4.88;;
65189;SDS011;51777;53.570;9.984;2023-09-07T05:04:00;7.68;;;4.55;;
65189;SDS011;51777;53.570;9.984;2023-09-07T05:06:28;11.30;;;4.90;;
65189;SDS011;51777;53.570;9.984;2023-09-07T05:08:54;8.85;;;4.85;;
65189;SDS011;51777;53.570;9.984;2023-09-07T05:11:19;7.10;;;4.65;;
65189;SDS011;51777;53.570;9.984;2023-09-07T05:13:45;8.88;;;4.45;;
65189;SDS011;51777;53.570;9.984;2023-09-07T05:16:10;8.80;;;4.75;;
65189;SDS011;51777;53.570;9.984;2023-09-07T05:18:36;11.48;;;4.60;;
65189;SDS011;51777;53.570;9.984;2023-09-07T05:21:24;12.38;;;4.63;;
65189;SDS011;51777;53.570;9.984;2023-09-07T05:23:48;15.07;;;4.93;;
65189;SDS011;51777;53.570;9.984;2023-09-07T05:26:14;6.55;;;4.85;;
65189;SDS011;51777;53.570;9.984;2023-09-07T05:28:45;5.75;;;4.40;;
65189;SDS011;51777;53.570;9.984;2023-09-07T05:31:10;7.68;;;4.72;;
65189;SDS011;51777;53.570;9.984;2023-09-07T05:33:36;6.53;;;4.45;;
65189;SDS011;51777;53.570;9.984;2023-09-07T05:36:01;8.57;;;4.72;;
65189;SDS011;51777;53.570;9.984;2023-09-07T05:38:27;5.38;;;4.45;;
65189;SDS011;51777;53.570;9.984;2023-09-07T05:40:52;5.90;;;4.90;;
65189;SDS011;51777;53.570;9.984;2023-09-07T05:43:19;10.05;;;4.60;;
65189;SDS011;51777;53.570;9.984;2023-09-07T05:45:45;14.05;;;4.45;;
65189;SDS011;51777;53.570;9.984;2023-09-07T05:48:10;12.10;;;4.53;;
65189;SDS011;51777;53.570;9.984;2023-09-07T05:50:38;9.10;;;5.13;;
65189;SDS011;51777;53.570;9.984;2023-09-07T05:53:05;11.30;;;4.90;;
65189;SDS011;51777;53.570;9.984;2023-09-07T05:55:31;10.52;;;4.57;;
65189;SDS011;51777;53.570;9.984;2023-09-07T05:57:57;6.15;;;4.68;;
65189;SDS011;51777;53.570;9.984;2023-09-07T06:00:23;12.27;;;5.00;;
65189;SDS011;51777;53.570;9.984;2023-09-07T06:02:49;5.32;;;4.55;;
65189;SDS011;51777;53.570;9.984;2023-09-07T06:05:15;10.35;;;4.60;;
65189;SDS011;51777;53.570;9.984;2023-09-07T06:07:41;10.80;;;4.75;;
65189;SDS011;51777;53.570;9.984;2023-09-07T06:10:08;7.35;;;4.50;;
65189;SDS011;51777;53.570;9.984;2023-09-07T06:12:33;7.00;;;4.90;;
65189;SDS011;51777;53.570;9.984;2023-09-07T06:15:02;8.63;;;4.60;;
65189;SDS011;51777;53.570;9.984;2023-09-07T06:17:28;11.15;;;4.90;;
65189;SDS011;51777;53.570;9.984;2023-09-07T06:19:54;6.50;;;4.57;;
65189;SDS011;51777;53.570;9.984;2023-09-07T06:22:20;10.38;;;5.10;;
65189;SDS011;51777;53.570;9.984;2023-09-07T06:24:45;9.48;;;5.25;;
65189;SDS011;51777;53.570;9.984;2023-09-07T06:27:11;8.02;;;4.80;;
65189;SDS011;51777;53.570;9.984;2023-09-07T06:29:36;10.73;;;5.35;;
65189;SDS011;51777;53.570;9.984;2023-09-07T06:32:02;13.05;;;5.00;;
65189;SDS011;51777;53.570;9.984;2023-09-07T06:34:28;6.65;;;4.80;;
65189;SDS011;51777;53.570;9.984;2023-09-07T06:36:53;9.50;;;4.85;;
65189;SDS011;51777;53.570;9.984;2023-09-07T06:39:19;5.45;;;4.40;;
65189;SDS011;51777;53.570;9.984;2023-09-07T06:41:47;9.30;;;4.43;;
65189;SDS011;51777;53.570;9.984;2023-09-07T06:44:13;10.13;;;4.50;;
65189;SDS011;51777;53.570;9.984;2023-09-07T06:46:39;14.63;;;4.68;;
65189;SDS011;51777;53.570;9.984;2023-09-07T06:49:04;7.03;;;4.47;;
65189;SDS011;51777;53.570;9.984;2023-09-07T06:51:30;10.75;;;4.53;;
65189;SDS011;51777;53.570;9.984;2023-09-07T06:53:56;11.23;;;4.63;;
65189;SDS011;51777;53.570;9.984;2023-09-07T06:56:21;13.90;;;4.60;;
65189;SDS011;51777;53.570;9.984;2023-09-07T06:58:47;8.48;;;4.65;;
65189;SDS011;51777;53.570;9.984;2023-09-07T07:01:13;7.88;;;4.43;;
65189;SDS011;51777;53.570;9.984;2023-09-07T07:03:38;9.82;;;4.47;;
65189;SDS011;51777;53.570;9.984;2023-09-07T07:06:03;11.52;;;4.50;;
65189;SDS011;51777;53.570;9.984;2023-09-07T07:08:29;9.30;;;4.57;;
65189;SDS011;51777;53.570;9.984;2023-09-07T07:10:54;7.40;;;4.20;;
65189;SDS011;51777;53.570;9.984;2023-09-07T07:13:20;10.30;;;4.43;;
65189;SDS011;51777;53.570;9.984;2023-09-07T07:15:53;9.07;;;4.45;;
65189;SDS011;51777;53.570;9.984;2023-09-07T07:18:21;9.00;;;4.57;;
65189;SDS011;51777;53.570;9.984;2023-09-07T07:20:49;12.75;;;5.72;;
65189;SDS011;51777;53.570;9.984;2023-09-07T07:23:16;8.70;;;4.28;;
65189;SDS011;51777;53.570;9.984;2023-09-07T07:25:41;14.90;;;4.15;;
65189;SDS011;51777;53.570;9.984;2023-09-07T07:28:07;6.82;;;3.85;;
65189;SDS011;51777;53.570;9.984;2023-09-07T07:30:33;6.13;;;3.95;;
65189;SDS011;51777;53.570;9.984;2023-09-07T07:33:01;5.55;;;4.00;;
65189;SDS011;51777;53.570;9.984;2023-09-07T07:35:29;6.00;;;4.10;;
65189;SDS011;51777;53.570;9.984;2023-09-07T07:37:55;7.03;;;3.80;;
65189;SDS011;51777;53.570;9.984;2023-09-07T07:40:20;6.20;;;3.85;;
65189;SDS011;51777;53.570;9.984;2023-09-07T07:42:46;6.40;;;4.13;;
65189;SDS011;51777;53.570;9.984;2023-09-07T07:45:12;8.13;;;4.13;;
65189;SDS011;51777;53.570;9.984;2023-09-07T07:47:39;8.55;;;4.10;;
65189;SDS011;51777;53.570;9.984;2023-09-07T07:50:05;7.38;;;3.70;;
65189;SDS011;51777;53.570;9.984;2023-09-07T07:52:31;13.30;;;3.88;;
65189;SDS011;51777;53.570;9.984;2023-09-07T07:54:56;6.28;;;3.88;;
65189;SDS011;51777;53.570;9.984;2023-09-07T07:57:22;11.13;;;3.85;;
65189;SDS011;51777;53.570;9.984;2023-09-07T07:59:47;10.02;;;3.70;;
65189;SDS011;51777;53.570;9.984;2023-09-07T08:02:13;7.75;;;3.85;;
65189;SDS011;51777;53.570;9.984;2023-09-07T08:04:38;7.20;;;4.05;;
65189;SDS011;51777;53.570;9.984;2023-09-07T08:07:04;6.97;;;4.00;;
65189;SDS011;51777;53.570;9.984;2023-09-07T08:09:38;9.35;;;3.45;;
65189;SDS011;51777;53.570;9.984;2023-09-07T08:12:04;8.25;;;3.63;;
65189;SDS011;51777;53.570;9.984;2023-09-07T08:14:30;6.90;;;3.80;;
65189;SDS011;51777;53.570;9.984;2023-09-07T08:16:56;11.52;;;3.70;;
65189;SDS011;51777;53.570;9.984;2023-09-07T08:19:22;9.82;;;3.90;;
65189;SDS011;51777;53.570;9.984;2023-09-07T08:21:47;14.73;;;3.90;;
65189;SDS011;51777;53.570;9.984;2023-09-07T08:24:14;6.95;;;3.72;;
65189;SDS011;51777;53.570;9.984;2023-09-07T08:26:39;10.05;;;4.00;;
65189;SDS011;51777;53.570;9.984;2023-09-07T08:29:05;8.85;;;3.50;;
65189;SDS011;51777;53.570;9.984;2023-09-07T08:31:31;6.20;;;3.20;;
65189;SDS011;51777;53.570;9.984;2023-09-07T08:34:03;9.93;;;3.20;;
65189;SDS011;51777;53.570;9.984;2023-09-07T08:36:29;9.43;;;3.30;;
65189;SDS011;51777;53.570;9.984;2023-09-07T08:38:58;10.38;;;3.05;;
65189;SDS011;51777;53.570;9.984;2023-09-07T08:41:30;10.38;;;2.97;;
65189;SDS011;51777;53.570;9.984;2023-09-07T08:43:57;9.65;;;2.85;;
65189;SDS011;51777;53.570;9.984;2023-09-07T08:46:23;13.70;;;3.08;;
65189;SDS011;51777;53.570;9.984;2023-09-07T08:48:49;7.60;;;2.88;;
65189;SDS011;51777;53.570;9.984;2023-09-07T08:51:15;8.27;;;2.70;;
65189;SDS011;51777;53.570;9.984;2023-09-07T08:53:43;5.78;;;2.80;;
65189;SDS011;51777;53.570;9.984;2023-09-07T08:56:11;11.55;;;2.92;;
65189;SDS011;51777;53.570;9.984;2023-09-07T08:58:38;3.55;;;2.50;;
65189;SDS011;51777;53.570;9.984;2023-09-07T09:01:06;9.05;;;2.80;;
65189;SDS011;51777;53.570;9.984;2023-09-07T09:03:34;3.50;;;2.40;;
65189;SDS011;51777;53.570;9.984;2023-09-07T09:06:00;6.82;;;2.60;;
65189;SDS011;51777;53.570;9.984;2023-09-07T09:08:26;8.60;;;2.70;;
65189;SDS011;51777;53.570;9.984;2023-09-07T09:11:01;7.57;;;2.45;;
65189;SDS011;51777;53.570;9.984;2023-09-07T09:13:30;6.60;;;2.65;;
65189;SDS011;51777;53.570;9.984;2023-09-07T09:15:58;6.10;;;2.40;;
65189;SDS011;51777;53.570;9.984;2023-09-07T09:18:26;12.18;;;2.50;;
65189;SDS011;51777;53.570;9.984;2023-09-07T09:20:52;8.70;;;2.30;;
65189;SDS011;51777;53.570;9.984;2023-09-07T09:23:19;4.93;;;2.30;;
65189;SDS011;51777;53.570;9.984;2023-09-07T09:25:45;5.18;;;2.30;;
65189;SDS011;51777;53.570;9.984;2023-09-07T09:28:12;12.80;;;2.72;;
65189;SDS011;51777;53.570;9.984;2023-09-07T09:30:38;9.95;;;2.58;;
65189;SDS011;51777;53.570;9.984;2023-09-07T09:33:04;4.70;;;2.30;;
65189;SDS011;51777;53.570;9.984;2023-09-07T09:35:34;4.50;;;2.40;;
65189;SDS011;51777;53.570;9.984;2023-09-07T09:38:00;3.03;;;2.13;;
65189;SDS011;51777;53.570;9.984;2023-09-07T09:40:33;4.47;;;2.22;;
65189;SDS011;51777;53.570;9.984;2023-09-07T09:43:03;3.85;;;2.47;;
65189;SDS011;51777;53.570;9.984;2023-09-07T09:45:30;7.88;;;2.70;;
65189;SDS011;51777;53.570;9.984;2023-09-07T09:47:57;7.38;;;2.38;;
65189;SDS011;51777;53.570;9.984;2023-09-07T09:50:24;10.43;;;2.50;;
65189;SDS011;51777;53.570;9.984;2023-09-07T09:52:51;10.93;;;2.35;;
65189;SDS011;51777;53.570;9.984;2023-09-07T09:55:38;7.95;;;2.30;;
65189;SDS011;51777;53.570;9.984;2023-09-07T09:58:03;2.20;;;2.00;;
65189;SDS011;51777;53.570;9.984;2023-09-07T10:00:29;8.65;;;2.30;;
65189;SDS011;51777;53.570;9.984;2023-09-07T10:03:00;7.72;;;2.20;;
65189;SDS011;51777;53.570;9.984;2023-09-07T10:05:30;3.33;;;1.90;;
65189;SDS011;51777;53.570;9.984;2023-09-07T10:08:01;3.08;;;2.17;;
65189;SDS011;51777;53.570;9.984;2023-09-07T10:10:33;10.93;;;2.17;;
65189;SDS011;51777;53.570;9.984;2023-09-07T10:13:01;5.63;;;2.00;;
65189;SDS011;51777;53.570;9.984;2023-09-07T10:15:27;6.38;;;2.08;;
65189;SDS011;51777;53.570;9.984;2023-09-07T10:18:03;4.68;;;2.35;;
65189;SDS011;51777;53.570;9.984;2023-09-07T10:23:20;8.30;;;2.88;;
65189;SDS011;51777;53.570;9.984;2023-09-07T10:25:49;8.88;;;2.03;;
65189;SDS011;51777;53.570;9.984;2023-09-07T10:30:44;5.18;;;2.10;;
65189;SDS011;51777;53.570;9.984;2023-09-07T10:33:20;4.78;;;2.00;;
65189;SDS011;51777;53.570;9.984;2023-09-07T10:35:46;10.65;;;2.50;;
65189;SDS011;51777;53.570;9.984;2023-09-07T10:38:13;5.35;;;1.90;;
65189;SDS011;51777;53.570;9.984;2023-09-07T10:40:39;5.35;;;1.92;;
65189;SDS011;51777;53.570;9.984;2023-09-07T10:43:05;4.70;;;2.30;;
65189;SDS011;51777;53.570;9.984;2023-09-07T10:45:30;13.75;;;2.00;;
65189;SDS011;51777;53.570;9.984;2023-09-07T10:47:55;7.90;;;2.03;;
65189;SDS011;51777;53.570;9.984;2023-09-07T10:50:21;2.50;;;1.90;;
65189;SDS011;51777;53.570;9.984;2023-09-07T10:52:46;5.10;;;2.35;;
65189;SDS011;51777;53.570;9.984;2023-09-07T10:55:13;3.60;;;2.20;;
65189;SDS011;51777;53.570;9.984;2023-09-07T10:57:42;7.00;;;2.20;;
65189;SDS011;51777;53.570;9.984;2023-09-07T11:00:09;7.45;;;2.22;;
65189;SDS011;51777;53.570;9.984;2023-09-07T11:02:38;7.63;;;2.00;;
65189;SDS011;51777;53.570;9.984;2023-09-07T11:05:07;6.38;;;2.10;;
65189;SDS011;51777;53.570;9.984;2023-09-07T11:07:33;7.30;;;2.10;;
65189;SDS011;51777;53.570;9.984;2023-09-07T11:09:59;6.63;;;1.92;;
65189;SDS011;51777;53.570;9.984;2023-09-07T11:12:25;8.68;;;1.92;;
65189;SDS011;51777;53.570;9.984;2023-09-07T11:14:51;8.82;;;2.00;;
65189;SDS011;51777;53.570;9.984;2023-09-07T11:17:17;6.15;;;1.95;;
65189;SDS011;51777;53.570;9.984;2023-09-07T11:19:42;8.80;;;2.00;;
65189;SDS011;51777;53.570;9.984;2023-09-07T11:22:11;9.93;;;2.15;;
65189;SDS011;51777;53.570;9.984;2023-09-07T11:24:37;4.28;;;1.90;;
65189;SDS011;51777;53.570;9.984;2023-09-07T11:27:02;7.57;;;1.98;;
65189;SDS011;51777;53.570;9.984;2023-09-07T11:29:30;8.90;;;2.00;;
65189;SDS011;51777;53.570;9.984;2023-09-07T11:32:06;12.02;;;2.88;;
65189;SDS011;51777;53.570;9.984;2023-09-07T11:34:33;8.88;;;2.03;;
65189;SDS011;51777;53.570;9.984;2023-09-07T11:37:02;6.80;;;1.90;;
65189;SDS011;51777;53.570;9.984;2023-09-07T11:39:28;9.95;;;1.88;;
65189;SDS011;51777;53.570;9.984;2023-09-07T11:41:53;6.80;;;2.10;;
65189;SDS011;51777;53.570;9.984;2023-09-07T11:44:19;8.23;;;1.80;;
65189;SDS011;51777;53.570;9.984;2023-09-07T11:46:45;4.95;;;1.83;;
65189;SDS011;51777;53.570;9.984;2023-09-07T11:49:11;4.55;;;1.60;;
65189;SDS011;51777;53.570;9.984;2023-09-07T11:51:49;6.72;;;1.80;;
65189;SDS011;51777;53.570;9.984;2023-09-07T11:54:15;4.40;;;1.90;;
65189;SDS011;51777;53.570;9.984;2023-09-07T11:56:40;4.13;;;1.90;;
65189;SDS011;51777;53.570;9.984;2023-09-07T11:59:17;6.35;;;1.80;;
65189;SDS011;51777;53.570;9.984;2023-09-07T12:01:43;2.50;;;1.73;;
65189;SDS011;51777;53.570;9.984;2023-09-07T12:04:09;6.43;;;1.58;;
65189;SDS011;51777;53.570;9.984;2023-09-07T12:06:34;2.38;;;1.50;;
65189;SDS011;51777;53.570;9.984;2023-09-07T12:09:06;10.30;;;1.65;;
65189;SDS011;51777;53.570;9.984;2023-09-07T12:11:32;4.30;;;1.70;;
65189;SDS011;51777;53.570;9.984;2023-09-07T12:13:58;7.82;;;1.80;;
65189;SDS011;51777;53.570;9.984;2023-09-07T12:16:27;5.13;;;1.60;;
65189;SDS011;51777;53.570;9.984;2023-09-07T12:18:53;6.75;;;1.60;;
65189;SDS011;51777;53.570;9.984;2023-09-07T12:21:19;8.15;;;1.92;;
65189;SDS011;51777;53.570;9.984;2023-09-07T12:23:44;6.43;;;1.88;;
65189;SDS011;51777;53.570;9.984;2023-09-07T12:26:10;3.05;;;1.75;;
65189;SDS011;51777;53.570;9.984;2023-09-07T12:28:37;6.43;;;2.00;;
65189;SDS011;51777;53.570;9.984;2023-09-07T12:31:02;5.43;;;1.80;;
65189;SDS011;51777;53.570;9.984;2023-09-07T12:33:27;6.35;;;1.98;;
65189;SDS011;51777;53.570;9.984;2023-09-07T12:35:55;2.85;;;1.70;;
65189;SDS011;51777;53.570;9.984;2023-09-07T12:38:20;6.10;;;1.70;;
65189;SDS011;51777;53.570;9.984;2023-09-07T12:43:20;5.20;;;1.45;;
65189;SDS011;51777;53.570;9.984;2023-09-07T12:45:47;3.90;;;1.50;;
65189;SDS011;51777;53.570;9.984;2023-09-07T12:48:12;6.55;;;1.98;;
65189;SDS011;51777;53.570;9.984;2023-09-07T12:50:40;6.57;;;1.52;;
65189;SDS011;51777;53.570;9.984;2023-09-07T12:53:06;9.30;;;1.50;;
65189;SDS011;51777;53.570;9.984;2023-09-07T12:55:31;5.05;;;1.48;;
65189;SDS011;51777;53.570;9.984;2023-09-07T12:57:57;4.28;;;1.65;;
65189;SDS011;51777;53.570;9.984;2023-09-07T13:00:26;6.07;;;1.67;;
65189;SDS011;51777;53.570;9.984;2023-09-07T13:02:55;6.88;;;1.67;;
65189;SDS011;51777;53.570;9.984;2023-09-07T13:05:21;7.22;;;1.80;;
65189;SDS011;51777;53.570;9.984;2023-09-07T13:07:47;3.67;;;1.90;;
65189;SDS011;51777;53.570;9.984;2023-09-07T13:10:14;5.90;;;1.70;;
65189;SDS011;51777;53.570;9.984;2023-09-07T13:12:40;7.10;;;1.80;;
65189;SDS011;51777;53.570;9.984;2023-09-07T13:15:06;7.70;;;2.03;;
65189;SDS011;51777;53.570;9.984;2023-09-07T13:17:32;4.60;;;1.98;;
65189;SDS011;51777;53.570;9.984;2023-09-07T13:19:57;9.90;;;2.00;;
65189;SDS011;51777;53.570;9.984;2023-09-07T13:22:23;6.30;;;1.98;;
65189;SDS011;51777;53.570;9.984;2023-09-07T13:24:48;5.85;;;2.08;;
65189;SDS011;51777;53.570;9.984;2023-09-07T13:27:15;4.40;;;2.00;;
65189;SDS011;51777;53.570;9.984;2023-09-07T13:29:40;5.53;;;1.90;;
65189;SDS011;51777;53.570;9.984;2023-09-07T13:32:06;11.23;;;1.80;;
65189;SDS011;51777;53.570;9.984;2023-09-07T13:34:31;5.60;;;1.85;;
65189;SDS011;51777;53.570;9.984;2023-09-07T13:36:57;6.60;;;2.08;;
65189;SDS011;51777;53.570;9.984;2023-09-07T13:39:22;5.57;;;2.35;;
65189;SDS011;51777;53.570;9.984;2023-09-07T13:41:48;7.47;;;2.10;;
65189;SDS011;51777;53.570;9.984;2023-09-07T13:44:14;6.70;;;1.80;;
65189;SDS011;51777;53.570;9.984;2023-09-07T13:46:41;7.63;;;1.98;;
65189;SDS011;51777;53.570;9.984;2023-09-07T13:49:07;2.95;;;1.77;;
65189;SDS011;51777;53.570;9.984;2023-09-07T13:51:32;6.55;;;1.92;;
65189;SDS011;51777;53.570;9.984;2023-09-07T13:54:06;7.57;;;1.90;;
65189;SDS011;51777;53.570;9.984;2023-09-07T13:56:32;4.82;;;1.88;;
65189;SDS011;51777;53.570;9.984;2023-09-07T13:58:58;9.05;;;1.70;;
65189;SDS011;51777;53.570;9.984;2023-09-07T14:01:24;4.30;;;1.60;;
65189;SDS011;51777;53.570;9.984;2023-09-07T14:03:49;4.10;;;1.70;;
65189;SDS011;51777;53.570;9.984;2023-09-07T14:06:15;1.90;;;1.50;;
65189;SDS011;51777;53.570;9.984;2023-09-07T14:08:42;9.70;;;1.70;;
65189;SDS011;51777;53.570;9.984;2023-09-07T14:11:09;6.90;;;2.05;;
65189;SDS011;51777;53.570;9.984;2023-09-07T14:13:34;9.02;;;1.88;;
65189;SDS011;51777;53.570;9.984;2023-09-07T14:16:00;7.05;;;1.95;;
65189;SDS011;51777;53.570;9.984;2023-09-07T14:18:28;3.88;;;1.50;;
65189;SDS011;51777;53.570;9.984;2023-09-07T14:20:53;2.05;;;1.65;;
65189;SDS011;51777;53.570;9.984;2023-09-07T14:23:23;7.03;;;1.70;;
65189;SDS011;51777;53.570;9.984;2023-09-07T14:25:50;16.27;;;1.70;;
65189;SDS011;51777;53.570;9.984;2023-09-07T14:28:16;5.00;;;1.50;;
65189;SDS011;51777;53.570;9.984;2023-09-07T14:30:42;6.63;;;1.50;;
65189;SDS011;51777;53.570;9.984;2023-09-07T14:33:07;8.60;;;1.55;;
65189;SDS011;51777;53.570;9.984;2023-09-07T14:35:32;5.07;;;1.80;;
65189;SDS011;51777;53.570;9.984;2023-09-07T14:37:58;11.27;;;1.80;;
65189;SDS011;51777;53.570;9.984;2023-09-07T14:40:23;4.43;;;1.63;;
65189;SDS011;51777;53.570;9.984;2023-09-07T14:42:49;7.10;;;1.60;;
65189;SDS011;51777;53.570;9.984;2023-09-07T14:45:15;9.63;;;1.83;;
65189;SDS011;51777;53.570;9.984;2023-09-07T14:47:41;2.45;;;1.50;;
65189;SDS011;51777;53.570;9.984;2023-09-07T14:50:07;6.20;;;1.63;;